Time;durP1;ratioP1;P1;durP2;ratioP2;P2;SDS_P1;SDS_P2;PMS_P1;PMS_P2;Temp;Humidity;BMP_temperature;BMP_pressure;BME280_temperature;BME280_humidity;BME280_pressure;Samples;Min_cycle;Max_cycle;Signal;HPM_P1;HPM_P2
2021/09/07 00:00:26;;;;;;;5.05;2.47;;;;;;;27.36;20.03;98997.94;5071914;28;20119;-82
2021/09/07 00:02:52;;;;;;;6.25;3.05;;;;;;;27.00;21.06;99013.19;5072330;28;20033;-82
2021/09/07 00:05:18;;;;;;;4.47;2.25;;;;;;;26.80;21.01;98996.25;5071944;28;20041;-82
2021/09/07 00:07:44;;;;;;;4.53;2.83;;;;;;;26.74;21.21;98995.13;5053787;28;20033;-82
2021/09/07 00:10:12;;;;;;;4.35;2.58;;;;;;;26.99;21.19;98998.31;5066607;28;20028;-82
2021/09/07 00:12:39;;;;;;;2.72;1.90;;;;;;;27.21;20.77;98996.63;5070206;28;20032;-82
2021/09/07 00:15:08;;;;;;;5.25;2.88;;;;;;;27.40;20.56;98993.06;5071869;28;20020;-82
2021/09/07 00:17:34;;;;;;;3.85;2.40;;;;;;;27.48;20.15;98990.88;5068228;28;20377;-82
2021/09/07 00:20:00;;;;;;;3.85;2.40;;;;;;;27.58;19.96;98987.06;5068832;28;20403;-82
2021/09/07 00:22:26;;;;;;;4.28;2.50;;;;;;;27.59;19.79;98994.25;5070653;28;20036;-82
2021/09/07 00:24:52;;;;;;;6.13;2.83;;;;;;;27.59;20.12;98990.66;5071539;28;20187;-82
2021/09/07 00:27:18;;;;;;;3.85;2.30;;;;;;;27.63;19.85;98989.38;5064541;28;20149;-82
2021/09/07 00:29:44;;;;;;;5.80;2.63;;;;;;;27.76;20.00;98987.44;5068129;28;20028;-82
2021/09/07 00:32:10;;;;;;;3.85;2.70;;;;;;;27.80;19.95;98988.16;5071289;28;20522;-82
2021/09/07 00:34:37;;;;;;;3.22;2.47;;;;;;;27.79;19.99;98986.56;5070051;28;20036;-82
2021/09/07 00:37:03;;;;;;;5.95;2.42;;;;;;;27.34;20.53;98982.69;5070737;28;20111;-82
2021/09/07 00:39:30;;;;;;;4.75;2.42;;;;;;;27.12;20.97;98978.72;5068625;28;20040;-82
2021/09/07 00:41:56;;;;;;;4.20;2.15;;;;;;;27.14;20.80;98982.69;5069853;28;20041;-82
2021/09/07 00:44:23;;;;;;;4.68;2.88;;;;;;;27.27;20.54;98966.72;5071422;28;20025;-82
2021/09/07 00:46:57;;;;;;;8.93;3.05;;;;;;;27.40;19.89;98969.69;5070464;28;20102;-82
2021/09/07 00:49:25;;;;;;;5.15;2.33;;;;;;;27.61;20.18;98966.41;5070261;28;20068;-82
2021/09/07 00:51:53;;;;;;;2.83;1.95;;;;;;;27.40;20.31;98970.50;5060081;28;20480;-82
2021/09/07 00:54:20;;;;;;;3.97;2.35;;;;;;;27.42;20.13;98958.78;5061634;28;20110;-82
2021/09/07 00:56:47;;;;;;;4.72;2.80;;;;;;;27.24;20.70;98961.94;5070853;28;20480;-82
2021/09/07 00:59:14;;;;;;;3.35;2.20;;;;;;;27.20;21.16;98963.25;5067028;28;20056;-82
2021/09/07 01:01:41;;;;;;;4.32;2.60;;;;;;;27.35;20.67;98956.88;5063960;28;20047;-82
2021/09/07 01:04:07;;;;;;;3.45;2.00;;;;;;;27.16;21.08;98959.72;5069350;28;20046;-82
2021/09/07 01:06:34;;;;;;;7.97;2.97;;;;;;;26.94;21.61;98964.16;5070180;28;20040;-82
2021/09/07 01:09:01;;;;;;;4.38;2.08;;;;;;;27.05;21.42;98961.97;5071576;28;20020;-82
2021/09/07 01:11:27;;;;;;;3.40;2.72;;;;;;;27.14;21.24;98956.53;5068613;28;20044;-81
2021/09/07 01:13:54;;;;;;;3.95;2.30;;;;;;;27.17;21.30;98961.28;5063126;28;20032;-82
2021/09/07 01:16:20;;;;;;;2.85;2.00;;;;;;;27.43;21.07;98963.19;5066199;28;20039;-81
2021/09/07 01:18:46;;;;;;;5.00;2.25;;;;;;;27.61;20.74;98957.94;5070319;28;20564;-82
2021/09/07 01:21:13;;;;;;;5.35;2.42;;;;;;;27.67;20.68;98970.31;5065987;28;20029;-82
2021/09/07 01:23:41;;;;;;;3.90;2.22;;;;;;;27.89;19.92;98962.16;5070193;28;20540;-82
2021/09/07 01:26:08;;;;;;;4.65;2.70;;;;;;;28.03;19.87;98959.00;5045936;28;20036;-82
2021/09/07 01:28:35;;;;;;;5.10;2.65;;;;;;;28.10;19.47;98949.59;5065746;28;20120;-82
2021/09/07 01:31:03;;;;;;;4.40;2.10;;;;;;;27.92;19.56;98955.63;5070967;28;20032;-82
2021/09/07 01:33:30;;;;;;;3.33;1.90;;;;;;;27.41;20.18;98957.19;5065911;28;20040;-82
2021/09/07 01:36:00;;;;;;;4.45;2.25;;;;;;;27.21;20.68;98954.34;5068529;28;20500;-82
2021/09/07 01:38:27;;;;;;;3.88;2.58;;;;;;;27.35;20.23;98948.41;5063831;28;20040;-82
2021/09/07 01:40:55;;;;;;;3.63;2.90;;;;;;;27.21;20.49;98953.56;5071297;28;20174;-82
2021/09/07 01:43:21;;;;;;;3.70;2.35;;;;;;;27.32;20.53;98952.13;5068160;28;20035;-82
2021/09/07 01:45:49;;;;;;;4.55;2.25;;;;;;;27.32;21.22;98952.13;5066679;28;20141;-82
2021/09/07 01:48:17;;;;;;;2.72;1.60;;;;;;;27.46;20.40;98941.78;5070198;28;20051;-82
2021/09/07 01:50:43;;;;;;;3.67;1.88;;;;;;;27.62;20.63;98944.63;5067941;28;20115;-82
2021/09/07 01:53:10;;;;;;;2.40;1.52;;;;;;;27.42;20.23;98951.09;5060905;28;20075;-82
2021/09/07 01:55:36;;;;;;;2.92;2.22;;;;;;;27.43;20.44;98951.91;5070832;28;20492;-82
2021/09/07 01:58:03;;;;;;;3.40;1.92;;;;;;;27.43;20.22;98946.25;5070176;28;20099;-82
2021/09/07 02:00:29;;;;;;;2.42;1.60;;;;;;;27.23;20.34;98942.66;5067283;28;20041;-82
2021/09/07 02:02:56;;;;;;;3.00;1.73;;;;;;;27.17;20.59;98945.16;5067808;28;20500;-82
2021/09/07 02:05:22;;;;;;;2.25;1.52;;;;;;;27.00;21.78;98945.56;5066457;28;20075;-82
2021/09/07 02:07:48;;;;;;;2.20;1.40;;;;;;;26.98;21.81;98948.78;5069588;28;20029;-82
2021/09/07 02:10:14;;;;;;;3.33;1.45;;;;;;;27.24;21.44;98947.03;5069490;28;20036;-82
2021/09/07 02:12:41;;;;;;;3.00;1.48;;;;;;;27.42;21.30;98949.53;5070562;28;20033;-82
2021/09/07 02:15:08;;;;;;;3.17;1.52;;;;;;;27.45;20.95;98948.63;5069795;28;20051;-82
2021/09/07 02:17:34;;;;;;;2.40;1.30;;;;;;;27.30;20.89;98942.50;5070477;28;20175;-82
2021/09/07 02:20:01;;;;;;;1.70;1.17;;;;;;;27.50;20.96;98943.28;5063600;28;20052;-82
2021/09/07 02:22:27;;;;;;;2.22;1.30;;;;;;;27.75;20.83;98940.69;5071871;28;20036;-82
2021/09/07 02:24:53;;;;;;;4.32;1.65;;;;;;;27.87;21.31;98945.66;5055098;28;20047;-82
2021/09/07 02:27:19;;;;;;;2.08;1.33;;;;;;;27.84;20.92;98943.69;5070558;28;20060;-82
2021/09/07 02:29:46;;;;;;;2.28;1.42;;;;;;;27.79;20.73;98934.97;5073878;28;20041;-82
2021/09/07 02:32:12;;;;;;;2.60;1.33;;;;;;;27.90;20.42;98939.13;5069923;28;20040;-82
2021/09/07 02:34:38;;;;;;;2.17;1.45;;;;;;;28.08;20.32;98942.34;5056413;28;20079;-82
2021/09/07 02:37:05;;;;;;;1.55;1.23;;;;;;;28.28;19.82;98936.63;5074386;28;20056;-82
2021/09/07 02:39:31;;;;;;;2.05;1.08;;;;;;;28.41;19.76;98940.31;5072257;28;20059;-82
2021/09/07 02:41:57;;;;;;;2.08;1.20;;;;;;;28.46;19.87;98941.78;5073194;28;20036;-82
2021/09/07 02:44:23;;;;;;;1.88;1.33;;;;;;;28.51;19.50;98935.63;5070897;28;20366;-82
2021/09/07 02:46:49;;;;;;;2.95;1.42;;;;;;;28.39;19.75;98944.81;5073246;28;20442;-82
2021/09/07 02:49:15;;;;;;;1.55;1.45;;;;;;;28.06;20.19;98941.19;5050561;28;20071;-82
2021/09/07 02:51:43;;;;;;;3.22;1.20;;;;;;;27.86;20.27;98946.09;5073021;28;20036;-82
2021/09/07 02:54:09;;;;;;;1.65;1.13;;;;;;;27.76;20.45;98939.47;5072841;28;20016;-82
2021/09/07 02:56:36;;;;;;;1.20;0.90;;;;;;;27.78;20.69;98937.00;5072813;28;20039;-82
2021/09/07 02:59:02;;;;;;;1.98;1.35;;;;;;;27.78;20.93;98936.19;5068534;28;20033;-82
2021/09/07 03:01:28;;;;;;;1.33;1.00;;;;;;;27.75;20.84;98937.09;5070812;28;20032;-81
2021/09/07 03:03:54;;;;;;;1.70;1.13;;;;;;;27.78;20.57;98937.00;5054507;28;20033;-81
2021/09/07 03:06:20;;;;;;;1.77;1.10;;;;;;;27.76;20.74;98930.19;5074326;28;20028;-82
2021/09/07 03:08:46;;;;;;;1.88;0.98;;;;;;;27.85;21.00;98942.47;5071491;28;20480;-82
2021/09/07 03:11:13;;;;;;;2.00;1.33;;;;;;;27.82;20.89;98934.09;5069539;28;20075;-82
2021/09/07 03:13:39;;;;;;;1.17;1.05;;;;;;;27.92;20.78;98933.84;5074131;28;20459;-82
2021/09/07 03:16:05;;;;;;;2.45;1.30;;;;;;;28.00;20.85;98934.50;5073771;28;20033;-82
2021/09/07 03:18:32;;;;;;;1.58;1.00;;;;;;;28.07;20.41;98934.31;5073157;28;20037;-82
2021/09/07 03:20:58;;;;;;;3.08;1.00;;;;;;;28.26;20.42;98941.13;5053602;28;20041;-82
2021/09/07 03:23:24;;;;;;;1.85;1.10;;;;;;;28.38;20.53;98943.22;5071403;28;20036;-82
2021/09/07 03:25:50;;;;;;;1.90;1.20;;;;;;;28.20;20.55;98938.03;5070899;28;20097;-82
2021/09/07 03:28:16;;;;;;;1.65;1.02;;;;;;;28.06;20.57;98932.72;5072806;28;20067;-82
2021/09/07 03:30:42;;;;;;;1.75;1.00;;;;;;;28.25;20.04;98940.31;5054715;28;20425;-82
2021/09/07 03:33:08;;;;;;;1.55;1.10;;;;;;;28.27;20.17;98940.66;5067351;28;20481;-82
2021/09/07 03:35:34;;;;;;;1.80;1.13;;;;;;;28.43;19.95;98940.66;5072389;28;20036;-82
2021/09/07 03:38:00;;;;;;;1.33;0.80;;;;;;;28.48;19.95;98936.50;5067624;28;20036;-82
2021/09/07 03:40:27;;;;;;;1.98;0.90;;;;;;;28.15;20.12;98937.75;5072411;28;20122;-82
2021/09/07 03:42:53;;;;;;;1.40;1.08;;;;;;;28.21;20.51;98947.28;5069190;28;20111;-82
2021/09/07 03:45:19;;;;;;;1.92;1.05;;;;;;;28.22;20.31;98944.00;5070581;28;20044;-82
2021/09/07 03:47:45;;;;;;;2.10;1.08;;;;;;;28.39;20.10;98941.97;5071534;28;20036;-82
2021/09/07 03:50:13;;;;;;;1.60;1.08;;;;;;;28.53;20.03;98948.06;5066279;28;20160;-82
2021/09/07 03:52:40;;;;;;;2.08;1.23;;;;;;;28.10;20.34;98941.91;5069022;28;20477;-82
2021/09/07 03:55:07;;;;;;;2.72;0.90;;;;;;;27.99;20.53;98938.53;5071688;28;20032;-82
2021/09/07 03:57:34;;;;;;;1.63;0.98;;;;;;;27.95;20.85;98941.44;5053828;28;20557;-82
2021/09/07 04:00:00;;;;;;;1.67;1.05;;;;;;;27.95;20.61;98938.63;5070936;28;20032;-82
2021/09/07 04:02:27;;;;;;;1.95;0.90;;;;;;;27.95;21.14;98941.44;5054997;28;20036;-82
2021/09/07 04:04:53;;;;;;;1.23;1.00;;;;;;;27.95;20.64;98944.25;5070264;28;20048;-82
2021/09/07 04:07:20;;;;;;;1.00;0.70;;;;;;;28.20;20.71;98937.22;5072179;28;20043;-82
2021/09/07 04:09:46;;;;;;;1.42;0.88;;;;;;;28.34;20.53;98934.84;5071012;28;20040;-81
2021/09/07 04:12:12;;;;;;;0.98;0.90;;;;;;;28.23;20.38;98931.50;5068351;28;20032;-81
2021/09/07 04:14:39;;;;;;;1.10;0.90;;;;;;;27.98;20.93;98932.06;5069875;28;20112;-81
2021/09/07 04:17:06;;;;;;;1.73;1.10;;;;;;;27.93;20.96;98929.00;5071622;28;20036;-81
2021/09/07 04:19:32;;;;;;;1.15;1.00;;;;;;;27.55;21.74;98930.69;5069420;28;20102;-81
2021/09/07 04:21:59;;;;;;;1.02;0.80;;;;;;;27.31;22.34;98927.16;5070131;28;20028;-81
2021/09/07 04:24:25;;;;;;;1.95;1.10;;;;;;;27.38;22.44;98932.66;5071215;28;20066;-81
2021/09/07 04:26:53;;;;;;;1.98;1.20;;;;;;;27.52;22.61;98923.09;5065577;28;20391;-82
2021/09/07 04:29:20;;;;;;;2.28;1.25;;;;;;;27.39;22.65;98928.63;5071398;28;20024;-82
2021/09/07 04:31:46;;;;;;;2.65;1.30;;;;;;;27.10;23.47;98919.94;5065279;28;20166;-82
2021/09/07 04:34:12;;;;;;;3.03;1.58;;;;;;;26.39;24.21;98933.78;5065917;28;20036;-82
2021/09/07 04:36:39;;;;;;;2.08;1.42;;;;;;;26.57;23.96;98939.91;5071824;28;20058;-82
2021/09/07 04:39:05;;;;;;;1.75;1.08;;;;;;;27.06;23.08;98940.97;5070588;28;20111;-81
2021/09/07 04:41:31;;;;;;;2.22;1.15;;;;;;;27.70;22.49;98937.63;5068646;28;20506;-83
2021/09/07 04:43:58;;;;;;;1.40;1.02;;;;;;;28.15;21.44;98943.38;5068251;28;20439;-83
2021/09/07 04:46:24;;;;;;;1.40;0.85;;;;;;;28.52;21.26;98935.16;5069816;28;20032;-83
2021/09/07 04:48:54;;;;;;;1.88;1.20;;;;;;;28.40;21.92;98940.75;5066826;28;20039;-83
2021/09/07 04:51:24;;;;;;;1.03;1.00;;;;;;;27.94;22.13;98939.03;5067292;28;20029;-84
2021/09/07 04:53:50;;;;;;;1.57;1.10;;;;;;;28.16;21.91;98942.97;5067736;28;20028;-85
2021/09/07 04:56:20;;;;;;;2.45;1.42;;;;;;;28.58;21.63;98943.91;5049468;28;20050;-83
2021/09/07 04:58:46;;;;;;;1.30;1.20;;;;;;;28.44;21.85;98942.25;5068697;28;20070;-84
2021/09/07 05:01:12;;;;;;;1.85;1.38;;;;;;;28.39;22.23;98939.94;5065995;28;20492;-83
2021/09/07 05:03:38;;;;;;;1.85;1.42;;;;;;;28.25;22.26;98943.13;5072811;28;20028;-83
2021/09/07 05:06:04;;;;;;;3.10;0.90;;;;;;;28.19;22.46;98941.28;5071912;28;20037;-84
2021/09/07 05:08:30;;;;;;;1.85;1.25;;;;;;;28.63;21.95;98944.19;5054643;28;20450;-84
2021/09/07 05:10:56;;;;;;;1.20;1.10;;;;;;;28.87;21.97;98944.72;5072140;28;20522;-84
2021/09/07 05:13:23;;;;;;;1.92;1.10;;;;;;;28.85;22.07;98944.38;5072335;28;20032;-84
2021/09/07 05:15:49;;;;;;;3.70;1.10;;;;;;;28.87;22.43;98944.72;5072812;28;20028;-84
2021/09/07 05:18:15;;;;;;;2.08;1.73;;;;;;;29.21;21.93;98942.19;5071870;28;20055;-83
2021/09/07 05:20:41;;;;;;;2.15;1.40;;;;;;;29.31;22.16;98932.56;5054414;28;20048;-84
2021/09/07 05:23:07;;;;;;;2.38;1.25;;;;;;;29.35;22.50;98941.75;5072259;28;20488;-82
2021/09/07 05:25:33;;;;;;;1.98;1.25;;;;;;;29.28;22.61;98936.31;5070934;28;20094;-83
2021/09/07 05:27:59;;;;;;;1.92;1.20;;;;;;;29.12;22.77;98935.56;5072545;28;20060;-83
2021/09/07 05:30:25;;;;;;;2.58;1.77;;;;;;;28.81;23.43;98945.72;5072807;28;20484;-83
2021/09/07 05:32:51;;;;;;;2.38;0.85;;;;;;;28.69;23.26;98948.06;5072046;28;20047;-83
2021/09/07 05:35:17;;;;;;;2.35;1.20;;;;;;;28.60;23.76;98947.09;5070240;28;20036;-83
2021/09/07 05:37:43;;;;;;;1.67;1.10;;;;;;;28.70;23.76;98940.38;5073010;28;20104;-83
2021/09/07 05:40:12;;;;;;;2.47;1.17;;;;;;;28.59;23.80;98949.13;5073656;28;20036;-83
2021/09/07 05:42:42;;;;;;;3.13;1.13;;;;;;;28.78;23.88;98949.47;5072734;28;20499;-83
2021/09/07 05:45:13;;;;;;;1.30;1.13;;;;;;;29.19;23.67;98944.66;5059593;28;20045;-83
2021/09/07 05:47:40;;;;;;;1.83;1.23;;;;;;;29.32;23.83;98944.69;5062381;28;20281;-83
2021/09/07 05:50:06;;;;;;;2.03;1.35;;;;;;;29.39;23.51;98941.63;5072803;28;20045;-84
2021/09/07 05:52:32;;;;;;;1.27;0.85;;;;;;;29.58;23.70;98951.97;5071927;28;20124;-83
2021/09/07 05:54:59;;;;;;;2.65;1.55;;;;;;;29.28;23.75;98955.31;5071593;28;20078;-83
2021/09/07 05:57:25;;;;;;;2.10;1.30;;;;;;;29.34;24.44;98947.84;5074816;28;20036;-84
2021/09/07 05:59:54;;;;;;;2.10;1.30;;;;;;;29.29;24.29;98956.91;5076359;28;20071;-84
2021/09/07 06:02:21;;;;;;;2.65;1.83;;;;;;;29.08;25.28;98958.28;5076440;28;20029;-83
2021/09/07 06:04:47;;;;;;;2.63;1.55;;;;;;;29.64;24.31;98955.81;5076849;28;20051;-84
2021/09/07 06:07:13;;;;;;;3.58;1.75;;;;;;;29.59;24.24;98952.78;5076207;28;20028;-83
2021/09/07 06:09:39;;;;;;;2.03;1.50;;;;;;;29.81;24.51;98945.22;5058990;28;20043;-83
2021/09/07 06:12:05;;;;;;;4.70;1.88;;;;;;;29.58;24.74;98942.69;5076875;28;20472;-83
2021/09/07 06:14:33;;;;;;;4.05;1.70;;;;;;;29.42;25.34;98946.41;5076064;28;20082;-83
2021/09/07 06:16:59;;;;;;;3.15;1.95;;;;;;;29.36;24.58;98951.81;5076128;28;20558;-83
2021/09/07 06:19:26;;;;;;;4.43;1.92;;;;;;;29.17;24.46;98943.50;5075997;28;20067;-83
2021/09/07 06:21:53;;;;;;;2.72;1.80;;;;;;;29.20;25.66;98946.25;5076127;28;20028;-83
2021/09/07 06:24:19;;;;;;;3.85;2.05;;;;;;;28.41;25.91;98953.63;5075542;28;20033;-83
2021/09/07 06:26:45;;;;;;;17.75;2.10;;;;;;;28.23;26.03;98954.09;5076095;28;20104;-83
2021/09/07 06:29:11;;;;;;;2.88;1.80;;;;;;;28.43;26.88;98960.41;5063170;28;20124;-83
2021/09/07 06:31:37;;;;;;;4.32;2.15;;;;;;;28.86;26.15;98965.78;5074228;28;20082;-83
2021/09/07 06:34:04;;;;;;;4.80;1.90;;;;;;;29.28;27.05;98950.47;5071689;28;20545;-83
2021/09/07 06:36:30;;;;;;;4.35;2.58;;;;;;;29.05;25.90;98956.34;5075519;28;20078;-83
2021/09/07 06:38:56;;;;;;;2.63;1.55;;;;;;;29.07;26.41;98945.38;5075827;28;20499;-83
2021/09/07 06:41:23;;;;;;;3.60;1.40;;;;;;;29.36;26.08;98951.81;5075728;28;20491;-84
2021/09/07 06:43:49;;;;;;;2.80;1.85;;;;;;;29.41;25.42;98958.97;5074012;28;20112;-84
2021/09/07 06:46:15;;;;;;;2.30;1.65;;;;;;;29.74;25.53;98960.38;5056060;28;20041;-83
2021/09/07 06:48:41;;;;;;;2.13;1.55;;;;;;;30.15;25.62;98959.50;5055585;28;20112;-84
2021/09/07 06:51:08;;;;;;;2.85;1.70;;;;;;;30.26;25.06;98953.47;5071166;28;20514;-84
2021/09/07 06:53:34;;;;;;;2.72;1.73;;;;;;;30.16;25.08;98952.56;5075580;28;20028;-83
2021/09/07 06:56:00;;;;;;;2.42;1.70;;;;;;;29.76;25.55;98952.25;5075636;28;20041;-83
2021/09/07 06:58:26;;;;;;;2.97;1.50;;;;;;;29.96;25.15;98954.88;5056797;28;20032;-83
2021/09/07 07:00:52;;;;;;;3.20;1.88;;;;;;;29.84;25.13;98952.81;5075654;28;20021;-84
2021/09/07 07:03:18;;;;;;;4.22;1.75;;;;;;;29.77;25.30;98953.84;5076169;28;20460;-84
2021/09/07 07:05:44;;;;;;;2.85;1.90;;;;;;;29.79;25.40;98959.03;5074105;28;20033;-84
2021/09/07 07:08:11;;;;;;;1.55;1.45;;;;;;;30.24;24.60;98956.78;5073798;28;20036;-83
2021/09/07 07:10:37;;;;;;;1.77;1.52;;;;;;;30.17;25.16;98959.03;5075304;28;20037;-84
2021/09/07 07:13:03;;;;;;;2.35;1.40;;;;;;;30.11;25.22;98963.69;5074898;28;20042;-83
2021/09/07 07:15:30;;;;;;;2.67;1.42;;;;;;;30.60;25.03;98968.50;5075018;28;20047;-84
2021/09/07 07:17:56;;;;;;;2.03;1.70;;;;;;;30.05;25.13;98954.97;5075066;28;20028;-84
2021/09/07 07:20:22;;;;;;;2.47;1.83;;;;;;;29.64;25.58;98961.47;5075173;28;20098;-84
2021/09/07 07:22:48;;;;;;;2.80;1.52;;;;;;;29.82;26.43;98964.63;5075330;28;20448;-84
2021/09/07 07:25:14;;;;;;;2.55;1.80;;;;;;;30.18;25.82;98960.63;5074519;28;20111;-83
2021/09/07 07:27:42;;;;;;;2.63;1.67;;;;;;;30.36;24.98;98963.69;5074602;28;20032;-84
2021/09/07 07:30:09;;;;;;;3.58;1.35;;;;;;;31.21;24.91;98962.28;5074386;28;20044;-83
2021/09/07 07:32:35;;;;;;;2.95;1.73;;;;;;;31.25;23.95;98962.16;5056616;28;20028;-84
2021/09/07 07:35:02;;;;;;;1.75;1.25;;;;;;;31.00;24.47;98957.38;5074837;28;20036;-84
2021/09/07 07:37:29;;;;;;;1.83;1.35;;;;;;;31.10;24.15;98956.22;5075054;28;20036;-83
2021/09/07 07:39:55;;;;;;;2.95;1.73;;;;;;;31.29;24.30;98962.81;5074813;28;20142;-84
2021/09/07 07:42:21;;;;;;;1.92;1.70;;;;;;;31.12;24.56;98959.38;5074550;28;20025;-83
2021/09/07 07:44:48;;;;;;;1.73;1.40;;;;;;;30.38;25.28;98970.50;5065852;28;20052;-84
2021/09/07 07:47:14;;;;;;;2.45;1.50;;;;;;;31.19;24.97;98972.50;5068944;28;20108;-84
2021/09/07 07:49:40;;;;;;;3.08;1.52;;;;;;;31.05;25.20;98975.88;5074372;28;20037;-84
2021/09/07 07:52:07;;;;;;;2.05;1.45;;;;;;;30.34;25.26;98978.31;5073715;28;20420;-83
2021/09/07 07:54:34;;;;;;;1.80;1.48;;;;;;;31.07;25.23;98976.19;5074494;28;20028;-84
2021/09/07 07:57:00;;;;;;;1.63;1.48;;;;;;;31.22;24.98;98982.94;5073249;28;20488;-84
2021/09/07 07:59:26;;;;;;;1.95;1.50;;;;;;;31.40;24.75;98983.06;5073785;28;20060;-84
2021/09/07 08:01:53;;;;;;;2.30;1.55;;;;;;;30.35;25.92;98984.78;5074037;28;20028;-84
2021/09/07 08:04:20;;;;;;;2.60;1.70;;;;;;;31.01;25.14;98989.41;5074289;28;20502;-84
2021/09/07 08:06:46;;;;;;;1.42;1.30;;;;;;;31.38;24.93;98988.41;5074109;28;20492;-84
2021/09/07 08:09:12;;;;;;;2.05;1.50;;;;;;;31.60;25.39;98989.22;5074300;28;20033;-84
2021/09/07 08:11:39;;;;;;;2.40;1.35;;;;;;;32.05;25.41;98983.00;5072666;28;20429;-84
2021/09/07 08:14:06;;;;;;;2.90;1.33;;;;;;;32.42;24.30;98970.50;5074096;28;20082;-84
2021/09/07 08:16:32;;;;;;;1.00;0.90;;;;;;;32.83;23.00;98982.59;5073751;28;20028;-84
2021/09/07 08:18:58;;;;;;;2.08;1.48;;;;;;;33.16;22.17;98986.44;5073512;28;20037;-84
2021/09/07 08:21:24;;;;;;;1.40;1.15;;;;;;;33.46;22.36;98987.50;5073963;28;20028;-84
2021/09/07 08:23:51;;;;;;;1.60;1.10;;;;;;;32.80;22.97;98987.19;5073200;28;20029;-84
2021/09/07 08:26:17;;;;;;;2.78;1.27;;;;;;;33.21;23.21;98983.75;5073838;28;20032;-84
2021/09/07 08:28:43;;;;;;;2.72;1.23;;;;;;;32.78;23.29;98989.72;5060566;28;20051;-84
2021/09/07 08:31:10;;;;;;;1.88;1.25;;;;;;;32.70;22.84;98992.06;5035928;28;20423;-84
2021/09/07 08:33:36;;;;;;;2.20;1.48;;;;;;;32.34;24.08;98991.16;5073543;28;20149;-84
2021/09/07 08:36:02;;;;;;;3.05;1.20;;;;;;;31.98;25.26;98998.28;5073670;28;20033;-84
2021/09/07 08:38:30;;;;;;;1.42;1.25;;;;;;;32.64;24.51;98996.81;5073832;28;20027;-84
2021/09/07 08:40:59;;;;;;;1.25;1.15;;;;;;;33.91;23.20;98998.84;5073534;28;20025;-84
2021/09/07 08:43:26;;;;;;;1.50;1.10;;;;;;;33.23;23.32;98989.78;5073660;28;20029;-84
2021/09/07 08:45:53;;;;;;;1.40;1.15;;;;;;;34.12;22.21;98995.00;5070038;28;20460;-84
2021/09/07 08:48:21;;;;;;;1.20;1.10;;;;;;;34.13;21.32;98995.75;5073892;28;20040;-84
2021/09/07 08:50:48;;;;;;;1.10;1.00;;;;;;;33.67;22.55;98995.09;5073223;28;20488;-84
2021/09/07 08:53:14;;;;;;;1.50;1.10;;;;;;;33.87;23.01;98995.34;5073540;28;20035;-84
2021/09/07 08:55:40;;;;;;;2.70;1.65;;;;;;;32.48;24.91;98999.09;5072840;28;20036;-84
2021/09/07 08:58:07;;;;;;;1.80;1.15;;;;;;;33.76;23.66;99004.41;5076329;28;20484;-84
2021/09/07 09:00:34;;;;;;;1.90;1.52;;;;;;;33.37;22.84;98997.63;5073712;28;20112;-84
2021/09/07 09:03:12;;;;;;;2.63;1.33;;;;;;;32.73;24.09;98996.81;5073293;28;20028;-84
2021/09/07 09:05:42;;;;;;;1.65;1.40;;;;;;;32.40;26.06;98990.06;5072315;28;20043;-84
2021/09/07 09:08:12;;;;;;;1.98;1.50;;;;;;;33.21;23.91;98992.28;5072870;28;20056;-84
2021/09/07 09:10:39;;;;;;;2.15;1.90;;;;;;;33.95;23.34;98999.44;5072886;28;20064;-84
2021/09/07 09:13:09;;;;;;;2.15;1.33;;;;;;;33.57;23.30;98987.84;5053737;28;20396;-84
2021/09/07 09:15:36;;;;;;;2.22;1.58;;;;;;;33.88;23.59;98996.94;5064256;28;20040;-84
2021/09/07 09:18:10;;;;;;;1.58;1.30;;;;;;;34.60;23.38;98996.66;5073473;28;20177;-85
2021/09/07 09:20:39;;;;;;;1.67;1.30;;;;;;;34.54;23.05;98986.41;5073154;28;20070;-85
2021/09/07 09:23:08;;;;;;;1.20;1.10;;;;;;;34.84;22.06;98993.03;5072952;28;20427;-85
2021/09/07 09:25:40;;;;;;;1.55;1.17;;;;;;;34.74;21.63;99000.84;5072963;28;20381;-84
2021/09/07 09:28:13;;;;;;;1.40;1.20;;;;;;;34.47;22.88;98993.22;5073044;28;20024;-84
2021/09/07 09:30:45;;;;;;;1.25;1.15;;;;;;;35.43;21.81;98991.91;5055116;28;20027;-84
2021/09/07 09:33:15;;;;;;;2.08;1.45;;;;;;;35.34;21.89;98994.84;5076977;28;20047;-84
2021/09/07 09:35:58;;;;;;;1.52;1.20;;;;;;;35.48;22.93;98993.28;5077079;28;20472;-85
2021/09/07 09:38:27;;;;;;;2.20;1.48;;;;;;;35.06;22.79;98987.78;5077208;28;20024;-84
2021/09/07 09:40:56;;;;;;;1.05;0.90;;;;;;;35.03;23.36;98995.25;5076114;28;20039;-85
2021/09/07 09:43:27;;;;;;;1.42;1.20;;;;;;;34.72;23.46;98998.50;5072972;28;20423;-85
2021/09/07 09:45:54;;;;;;;1.80;1.30;;;;;;;35.61;22.38;98986.03;5072056;28;20511;-84
2021/09/07 09:48:26;;;;;;;2.85;1.33;;;;;;;34.92;22.10;98980.72;5076762;28;20410;-85
2021/09/07 09:50:54;;;;;;;1.52;1.35;;;;;;;35.43;21.97;98989.03;5076913;28;20042;-84
2021/09/07 09:53:20;;;;;;;1.40;1.30;;;;;;;36.45;21.13;98979.66;5076586;28;20054;-84
2021/09/07 09:55:48;;;;;;;1.48;1.38;;;;;;;37.18;19.93;98977.25;5077194;28;20511;-84
2021/09/07 09:58:17;;;;;;;2.05;1.05;;;;;;;37.21;20.16;98976.25;5073715;28;20058;-84
2021/09/07 10:00:45;;;;;;;1.88;1.50;;;;;;;37.27;19.48;98973.47;5076503;28;20063;-84
2021/09/07 10:03:12;;;;;;;1.40;1.30;;;;;;;37.75;20.38;98967.97;5076498;28;20071;-84
2021/09/07 10:05:41;;;;;;;1.63;1.38;;;;;;;37.98;18.71;98967.69;5076277;28;20033;-84
2021/09/07 10:08:10;;;;;;;2.25;1.30;;;;;;;38.26;18.65;98965.00;5076426;28;20043;-84
2021/09/07 10:10:40;;;;;;;1.48;1.30;;;;;;;38.42;18.77;98975.84;5076777;28;20032;-85
2021/09/07 10:13:08;;;;;;;1.42;1.10;;;;;;;38.43;18.64;98971.69;5076366;28;20043;-84
2021/09/07 10:15:42;;;;;;;1.63;1.13;;;;;;;38.33;18.17;98969.50;5076042;28;20029;-84
2021/09/07 10:22:57;;;;;;;1.38;1.27;;;;;;;38.77;16.98;98969.03;5076555;28;20079;-84
2021/09/07 10:26:44;;;;;;;2.05;1.23;;;;;;;38.48;18.14;98962.31;5076521;28;20040;-85
2021/09/07 10:29:21;;;;;;;1.77;1.52;;;;;;;37.95;18.57;98962.19;5075807;28;20484;-84
2021/09/07 10:31:49;;;;;;;1.65;1.30;;;;;;;37.75;18.50;98963.03;5075874;28;20035;-84
2021/09/07 10:34:20;;;;;;;1.60;1.35;;;;;;;37.30;18.19;98973.22;5075761;28;20033;-84
2021/09/07 10:37:11;;;;;;;1.88;1.70;;;;;;;37.10;19.29;98964.69;5074762;28;20519;-84
2021/09/07 10:39:42;;;;;;;1.70;1.60;;;;;;;37.52;18.19;98966.19;5076344;28;20082;-84
2021/09/07 10:42:10;;;;;;;2.65;1.52;;;;;;;37.58;17.68;98964.16;5075312;28;20058;-84
2021/09/07 10:44:37;;;;;;;1.50;1.20;;;;;;;37.87;17.78;98972.53;5053564;28;20045;-84
2021/09/07 10:47:07;;;;;;;2.10;1.75;;;;;;;37.95;18.13;98973.66;5055769;28;20037;-84
2021/09/07 10:49:33;;;;;;;2.00;1.50;;;;;;;37.78;17.91;98969.81;5075757;28;20028;-84
2021/09/07 10:52:14;;;;;;;1.23;1.13;;;;;;;37.72;17.84;98963.22;5067910;28;20032;-84
2021/09/07 10:54:53;;;;;;;2.63;1.40;;;;;;;37.95;17.81;98962.94;5075486;28;20032;-84
2021/09/07 10:57:38;;;;;;;1.77;1.38;;;;;;;37.45;18.18;98960.91;5074842;28;20074;-84
2021/09/07 11:00:13;;;;;;;1.92;1.70;;;;;;;36.14;18.54;98956.53;5075147;28;20027;-84
2021/09/07 11:02:56;;;;;;;5.47;1.92;;;;;;;36.47;17.92;98954.19;5075532;28;20024;-84
2021/09/07 11:05:28;;;;;;;1.77;1.67;;;;;;;36.20;18.81;98948.84;5074997;28;20476;-84
2021/09/07 11:08:10;;;;;;;1.92;1.70;;;;;;;36.79;19.15;98953.06;5075600;28;20044;-84
2021/09/07 11:10:44;;;;;;;2.00;1.42;;;;;;;37.55;19.22;98956.59;5057317;28;20054;-84
2021/09/07 11:13:19;;;;;;;2.35;1.48;;;;;;;37.71;17.24;98950.22;5075397;28;20040;-84
2021/09/07 11:15:45;;;;;;;2.78;1.92;;;;;;;38.02;17.16;98947.34;5055314;28;20090;-84
2021/09/07 11:18:23;;;;;;;1.30;1.20;;;;;;;38.34;17.12;98940.31;5055214;28;20033;-85
2021/09/07 11:20:52;;;;;;;2.85;1.52;;;;;;;38.17;18.66;98945.13;5054906;28;20056;-84
2021/09/07 11:23:30;;;;;;;1.52;1.42;;;;;;;38.49;17.29;98948.72;5072512;28;20496;-84
2021/09/07 11:26:14;;;;;;;1.52;1.40;;;;;;;38.40;16.36;98944.00;5074839;28;20070;-84
2021/09/07 11:28:45;;;;;;;2.33;1.50;;;;;;;38.50;17.98;98939.63;5073648;28;20032;-84
2021/09/07 11:31:13;;;;;;;1.65;1.55;;;;;;;38.56;17.95;98942.50;5074692;28;20024;-84
2021/09/07 11:33:40;;;;;;;2.05;1.48;;;;;;;38.60;16.96;98937.31;5074772;28;20045;-84
2021/09/07 11:36:13;;;;;;;1.60;1.50;;;;;;;38.60;17.75;98934.47;5075091;28;20036;-84
2021/09/07 11:38:47;;;;;;;1.73;1.40;;;;;;;38.62;17.04;98926.91;5074737;28;20501;-84
2021/09/07 11:41:18;;;;;;;2.60;1.92;;;;;;;38.18;17.38;98940.97;5074834;28;20133;-84